Time;durP1;ratioP1;P1;durP2;ratioP2;P2;SDS_P1;SDS_P2;PMS_P1;PMS_P2;Temp;Humidity;BMP_temperature;BMP_pressure;BME280_temperature;BME280_humidity;BME280_pressure;Samples;Min_cycle;Max_cycle;Signal;HPM_P1;HPM_P2
2020/12/05 00:00:15;;;;;;;36.20;20.08;;;;;;;2.92;71.49;101675.61;1693730;84;21270;-62
2020/12/05 00:02:43;;;;;;;33.15;17.85;;;;;;;2.94;71.46;101672.52;1693345;82;21270;-63
2020/12/05 00:05:11;;;;;;;31.40;19.12;;;;;;;3.02;71.25;101674.91;1693736;82;21191;-63
2020/12/05 00:07:39;;;;;;;32.50;17.73;;;;;;;3.05;71.22;101683.48;1693057;82;21191;-61
2020/12/05 00:10:07;;;;;;;35.43;18.80;;;;;;;3.04;71.23;101677.02;1692758;82;21269;-62
2020/12/05 00:12:35;;;;;;;32.08;18.17;;;;;;;3.02;71.25;101691.36;1693427;82;21201;-63
2020/12/05 00:15:03;;;;;;;37.63;19.67;;;;;;;2.92;71.30;101691.20;1692534;84;22141;-62
2020/12/05 00:17:31;;;;;;;36.15;18.85;;;;;;;2.83;71.50;101692.77;1692573;82;21199;-62
2020/12/05 00:20:02;;;;;;;30.50;16.05;;;;;;;2.74;71.71;101690.81;1692695;82;22784;-63
2020/12/05 00:22:30;;;;;;;30.08;19.70;;;;;;;2.72;71.85;101692.61;1693535;84;21239;-62
2020/12/05 00:24:58;;;;;;;36.45;17.30;;;;;;;2.81;71.76;101691.93;1694574;82;21520;-59
2020/12/05 00:27:26;;;;;;;33.23;18.27;;;;;;;2.85;71.75;101697.47;1691892;83;22236;-61
2020/12/05 00:29:54;;;;;;;40.35;19.75;;;;;;;2.84;71.81;101696.62;1694264;82;21274;-59
2020/12/05 00:32:22;;;;;;;35.60;19.90;;;;;;;2.84;71.89;101700.53;1698902;83;21216;-61
2020/12/05 00:34:51;;;;;;;45.58;20.82;;;;;;;2.86;71.88;101712.16;1700808;83;21192;-61
2020/12/05 00:37:20;;;;;;;39.00;19.67;;;;;;;2.82;71.87;101706.65;1701230;83;21585;-60
2020/12/05 00:39:48;;;;;;;39.70;21.02;;;;;;;2.80;71.94;101707.98;1670839;84;22309;-61
2020/12/05 00:42:15;;;;;;;38.95;21.10;;;;;;;2.84;71.89;101703.12;1700887;82;22002;-61
2020/12/05 00:44:43;;;;;;;48.35;20.82;;;;;;;2.98;71.66;101702.75;1738594;80;21820;-61
2020/12/05 00:47:11;;;;;;;50.52;24.37;;;;;;;3.10;71.53;101705.46;1738406;80;21659;-61
2020/12/05 00:49:39;;;;;;;50.03;24.18;;;;;;;3.18;71.33;101698.30;1701423;82;21184;-61
2020/12/05 00:52:07;;;;;;;59.08;26.30;;;;;;;3.22;71.25;101701.66;1687714;83;23628;-60
2020/12/05 00:54:36;;;;;;;59.65;30.43;;;;;;;3.23;71.04;101698.14;1675740;83;21750;-61
2020/12/05 00:57:03;;;;;;;51.00;27.58;;;;;;;3.18;70.99;101700.91;1681503;83;21721;-61
2020/12/05 00:59:31;;;;;;;59.90;30.20;;;;;;;3.16;71.03;101706.56;1703722;82;21195;-62
2020/12/05 01:01:59;;;;;;;59.35;30.17;;;;;;;3.13;70.92;101701.02;1703602;83;21232;-61
2020/12/05 01:04:29;;;;;;;55.83;29.05;;;;;;;3.07;70.89;101701.19;1703919;83;22206;-61
2020/12/05 01:06:57;;;;;;;48.13;26.97;;;;;;;3.03;70.83;101703.48;1742865;81;21232;-61
2020/12/05 01:09:26;;;;;;;61.55;24.00;;;;;;;3.06;70.82;101707.72;1743834;80;21227;-60
2020/12/05 01:11:54;;;;;;;59.58;28.87;;;;;;;3.13;70.82;101709.28;1744663;81;21807;-60
2020/12/05 01:14:21;;;;;;;56.02;30.15;;;;;;;3.19;70.73;101705.64;1743073;80;21828;-62
2020/12/05 01:16:49;;;;;;;55.70;27.65;;;;;;;3.15;70.67;101707.03;1743150;80;21714;-62
2020/12/05 01:19:16;;;;;;;62.55;31.82;;;;;;;3.12;70.67;101712.77;1742970;80;21234;-62
2020/12/05 01:21:45;;;;;;;51.15;29.10;;;;;;;3.06;70.63;101709.90;1744160;81;21188;-62
2020/12/05 01:24:12;;;;;;;57.00;29.00;;;;;;;3.01;70.76;101709.59;1743497;80;21183;-61
2020/12/05 01:26:40;;;;;;;55.35;28.05;;;;;;;2.97;70.82;101710.13;1743438;80;21563;-61
2020/12/05 01:29:07;;;;;;;45.65;26.23;;;;;;;2.95;70.84;101708.03;1743700;81;23547;-61
2020/12/05 01:31:35;;;;;;;55.63;26.57;;;;;;;2.97;70.64;101707.53;1743667;81;21145;-62
2020/12/05 01:34:05;;;;;;;40.33;23.40;;;;;;;3.06;70.45;101706.42;1743359;80;21422;-63
2020/12/05 01:36:33;;;;;;;42.08;19.25;;;;;;;3.14;70.28;101710.55;1743369;80;21239;-60
2020/12/05 01:39:00;;;;;;;46.48;22.52;;;;;;;3.16;70.10;101704.84;1743738;81;22693;-61
2020/12/05 01:41:28;;;;;;;35.00;21.37;;;;;;;3.11;70.14;101709.32;1742773;80;23622;-61
2020/12/05 01:43:56;;;;;;;44.70;21.48;;;;;;;3.06;70.18;101706.42;1743138;81;22720;-61
2020/12/05 01:46:39;;;;;;;44.10;24.43;;;;;;;2.99;70.23;101707.03;1743613;81;21816;-62
2020/12/05 01:49:08;;;;;;;57.85;24.32;;;;;;;2.92;70.21;101701.15;1744001;81;21831;-61
2020/12/05 01:51:36;;;;;;;49.05;24.95;;;;;;;2.82;70.30;101705.34;1744341;80;21595;-60
2020/12/05 01:54:04;;;;;;;38.45;23.57;;;;;;;2.74;70.35;101710.73;1760460;80;21755;-61
2020/12/05 01:56:32;;;;;;;49.25;24.05;;;;;;;2.71;70.37;101714.28;1759206;80;21189;-61
2020/12/05 01:59:01;;;;;;;46.20;21.93;;;;;;;2.76;70.33;101710.27;1760029;80;21184;-61
2020/12/05 02:01:28;;;;;;;46.05;22.98;;;;;;;2.82;70.29;101710.55;1760277;80;21221;-60
2020/12/05 02:04:03;;;;;;;46.02;23.92;;;;;;;2.82;70.29;101707.49;1760127;79;21230;-61
2020/12/05 02:06:51;;;;;;;56.80;27.22;;;;;;;2.79;70.41;101703.66;1758966;80;21378;-62
2020/12/05 02:09:26;;;;;;;52.05;27.87;;;;;;;2.77;70.53;101705.03;1760451;79;22394;-62
2020/12/05 02:12:05;;;;;;;47.27;22.95;;;;;;;2.72;70.51;101701.70;1695334;83;21175;-62
2020/12/05 02:14:40;;;;;;;51.05;22.82;;;;;;;2.71;70.56;101697.39;1784501;78;22844;-63
2020/12/05 02:17:08;;;;;;;52.05;25.35;;;;;;;2.65;70.54;101704.03;1747099;81;21766;-62
2020/12/05 02:19:49;;;;;;;45.88;23.60;;;;;;;2.61;70.64;101702.42;1746982;81;23539;-61
2020/12/05 02:22:27;;;;;;;43.48;22.45;;;;;;;2.66;70.49;101710.95;1747957;81;21492;-62
2020/12/05 02:24:58;;;;;;;52.23;24.75;;;;;;;2.68;70.20;101717.41;1747859;81;21133;-62
2020/12/05 02:27:25;;;;;;;44.75;22.48;;;;;;;2.62;70.28;101719.70;1746781;81;21836;-62
2020/12/05 02:29:53;;;;;;;59.13;28.62;;;;;;;2.56;70.49;101721.18;1745061;81;21235;-62
2020/12/05 02:32:20;;;;;;;48.98;25.17;;;;;;;2.53;70.66;101725.14;1745839;81;22351;-61
2020/12/05 02:34:48;;;;;;;50.12;25.88;;;;;;;2.49;70.73;101723.50;1746899;81;21929;-62
2020/12/05 02:37:18;;;;;;;51.65;26.50;;;;;;;2.43;70.90;101718.02;1747045;81;21208;-61
2020/12/05 02:39:46;;;;;;;55.35;25.05;;;;;;;2.40;70.99;101727.18;1746352;81;21161;-61
2020/12/05 02:42:14;;;;;;;54.83;25.88;;;;;;;2.40;71.07;101725.88;1746453;81;21199;-61
2020/12/05 02:44:51;;;;;;;47.62;25.12;;;;;;;2.48;70.86;101729.15;1747037;81;21647;-62
2020/12/05 02:47:20;;;;;;;51.13;25.68;;;;;;;2.53;70.76;101724.69;1745866;80;21232;-63
2020/12/05 02:49:47;;;;;;;63.35;27.55;;;;;;;2.56;70.76;101719.42;1747346;81;21599;-60
2020/12/05 02:52:15;;;;;;;53.45;28.00;;;;;;;2.56;70.69;101726.38;1746946;80;21258;-59
2020/12/05 02:54:44;;;;;;;47.90;25.12;;;;;;;2.50;70.84;101731.26;1746595;81;21632;-60
2020/12/05 02:57:13;;;;;;;44.33;27.05;;;;;;;2.44;70.92;101727.95;1745694;81;23266;-60
2020/12/05 02:59:41;;;;;;;52.75;27.22;;;;;;;2.37;71.04;101728.13;1748137;81;21212;-61
2020/12/05 03:02:09;;;;;;;45.92;24.07;;;;;;;2.29;71.21;101730.05;1747840;81;21193;-59
2020/12/05 03:04:36;;;;;;;59.20;27.55;;;;;;;2.25;71.47;101732.30;1746115;81;21191;-59
2020/12/05 03:07:05;;;;;;;52.50;25.00;;;;;;;2.27;71.30;101721.87;1744727;81;21885;-61
2020/12/05 03:09:33;;;;;;;49.03;24.40;;;;;;;2.34;71.19;101731.25;1747312;81;21607;-61
2020/12/05 03:12:00;;;;;;;49.45;24.90;;;;;;;2.38;71.20;101729.81;1747096;81;21848;-59
2020/12/05 03:14:28;;;;;;;54.58;26.40;;;;;;;2.38;71.24;101734.17;1744986;81;21164;-60
2020/12/05 03:16:57;;;;;;;53.35;26.45;;;;;;;2.36;71.21;101725.56;1745861;81;21241;-61
2020/12/05 03:19:24;;;;;;;39.30;22.35;;;;;;;2.30;71.29;101720.05;1745129;81;21831;-61
2020/12/05 03:21:52;;;;;;;54.73;27.82;;;;;;;2.21;71.40;101715.09;1746212;80;21662;-61
2020/12/05 03:24:19;;;;;;;45.60;23.55;;;;;;;2.16;71.65;101719.55;1747062;81;21288;-62
2020/12/05 03:26:47;;;;;;;42.30;23.07;;;;;;;2.19;71.69;101708.63;1746839;81;21256;-61
2020/12/05 03:29:14;;;;;;;41.73;24.65;;;;;;;2.33;71.44;101714.79;1746352;81;21749;-61
2020/12/05 03:34:16;;;;;;;50.00;22.45;;;;;;;2.44;71.17;101707.17;1745643;81;22350;-60
2020/12/05 03:36:44;;;;;;;39.33;21.52;;;;;;;2.44;71.14;101720.16;1747192;81;21224;-62
2020/12/05 03:39:12;;;;;;;38.05;21.87;;;;;;;2.38;71.20;101720.72;1745791;81;21172;-61
2020/12/05 03:41:40;;;;;;;48.65;23.45;;;;;;;2.32;71.23;101721.31;1746229;81;21207;-61
2020/12/05 03:44:07;;;;;;;50.78;23.47;;;;;;;2.20;71.36;101714.25;1744953;81;21164;-61
2020/12/05 03:46:35;;;;;;;34.78;19.60;;;;;;;2.15;71.55;101717.41;1746876;81;21446;-61
2020/12/05 03:49:03;;;;;;;38.92;20.00;;;;;;;2.17;71.56;101721.23;1745927;80;21374;-61
2020/12/05 03:51:31;;;;;;;42.88;19.27;;;;;;;2.23;71.37;101714.60;1745225;81;21585;-60
2020/12/05 03:53:58;;;;;;;46.28;21.27;;;;;;;2.32;71.30;101720.89;1747088;81;22618;-62
2020/12/05 03:56:27;;;;;;;39.08;19.98;;;;;;;2.39;71.22;101725.04;1746588;81;21192;-61
2020/12/05 04:01:30;;;;;;;36.93;19.92;;;;;;;2.46;71.10;101717.95;1796283;78;21865;-59
2020/12/05 04:03:57;;;;;;;34.75;20.55;;;;;;;2.50;70.94;101727.81;1766386;80;21591;-60
2020/12/05 04:06:24;;;;;;;47.65;20.27;;;;;;;2.44;70.84;101722.76;1767155;80;21211;-60
2020/12/05 04:08:52;;;;;;;38.42;20.05;;;;;;;2.35;70.92;101722.09;1766591;80;21195;-60
2020/12/05 04:11:19;;;;;;;44.48;21.10;;;;;;;2.26;71.09;101724.92;1768359;80;21184;-61
2020/12/05 04:13:47;;;;;;;43.33;23.38;;;;;;;2.32;71.06;101726.09;1767823;78;22438;-62
2020/12/05 04:16:15;;;;;;;40.05;22.13;;;;;;;2.40;70.98;101733.25;1766985;80;21172;-64
2020/12/05 04:18:43;;;;;;;32.42;19.30;;;;;;;2.41;70.85;101731.05;1766881;80;21227;-63
2020/12/05 04:21:10;;;;;;;37.42;18.77;;;;;;;2.37;71.01;101743.72;1767031;78;21180;-61
2020/12/05 04:23:38;;;;;;;43.75;21.95;;;;;;;2.32;71.09;101739.08;1767052;80;21176;-63
2020/12/05 04:26:06;;;;;;;38.28;22.13;;;;;;;2.26;71.25;101743.56;1767242;78;21675;-62
2020/12/05 04:28:33;;;;;;;44.42;21.68;;;;;;;2.21;71.39;101742.36;1769225;80;21172;-60
2020/12/05 04:31:01;;;;;;;42.27;21.25;;;;;;;2.16;71.50;101741.16;1768362;78;21284;-62
2020/12/05 04:33:30;;;;;;;34.33;19.10;;;;;;;2.16;71.54;101738.56;1765191;80;21266;-62
2020/12/05 04:35:58;;;;;;;42.13;21.10;;;;;;;2.27;71.42;101729.24;1764935;80;21191;-63
2020/12/05 04:38:25;;;;;;;46.28;21.93;;;;;;;2.37;71.31;101735.05;1765623;80;21422;-61
2020/12/05 04:40:59;;;;;;;37.55;21.42;;;;;;;2.41;71.26;101733.64;1766344;80;21191;-62
2020/12/05 04:43:27;;;;;;;36.45;21.30;;;;;;;2.39;71.27;101740.62;1768591;80;22569;-61
2020/12/05 04:45:56;;;;;;;43.50;21.70;;;;;;;2.36;71.35;101736.80;1768321;80;21179;-62
2020/12/05 04:48:24;;;;;;;40.45;19.30;;;;;;;2.31;71.49;101733.45;1767024;80;21191;-61
2020/12/05 04:50:53;;;;;;;25.95;15.08;;;;;;;2.28;71.57;101732.69;1768828;80;21583;-61
2020/12/05 04:53:22;;;;;;;30.77;17.67;;;;;;;2.27;71.61;101733.56;1767404;80;22058;-60
2020/12/05 04:55:49;;;;;;;34.27;17.40;;;;;;;2.23;71.59;101735.38;1770155;79;21166;-61
2020/12/05 04:58:19;;;;;;;25.57;14.58;;;;;;;2.29;71.48;101736.55;1767741;80;21200;-60
2020/12/05 05:00:53;;;;;;;26.30;13.65;;;;;;;2.39;71.25;101741.92;1759740;80;21765;-64
2020/12/05 05:03:22;;;;;;;27.40;15.50;;;;;;;2.48;71.14;101737.41;1753377;80;21654;-66
2020/12/05 05:05:53;;;;;;;34.00;16.42;;;;;;;2.49;71.15;101745.58;1753729;79;21220;-68
2020/12/05 05:08:23;;;;;;;30.92;16.05;;;;;;;2.48;71.29;101740.00;1755036;80;21225;-62
2020/12/05 05:11:08;;;;;;;27.32;14.55;;;;;;;2.49;71.27;101734.77;1754040;79;21133;-64
2020/12/05 05:16:36;;;;;;;31.02;15.98;;;;;;;2.38;71.39;101748.00;1875217;75;22643;-65
2020/12/05 05:19:21;;;;;;;26.70;14.93;;;;;;;2.27;71.56;101750.44;1846240;77;21583;-65
2020/12/05 05:21:51;;;;;;;25.27;15.72;;;;;;;2.30;71.62;101752.52;1846210;77;21243;-65
2020/12/05 05:24:20;;;;;;;23.83;15.55;;;;;;;2.37;71.52;101751.93;1845151;77;21631;-65
2020/12/05 05:27:06;;;;;;;23.57;12.73;;;;;;;2.43;71.54;101753.55;1848164;75;21108;-66
2020/12/05 05:29:41;;;;;;;30.50;15.18;;;;;;;2.45;71.51;101750.46;1848219;75;21818;-66
2020/12/05 05:32:12;;;;;;;34.70;15.95;;;;;;;2.45;71.68;101760.40;1845457;75;21140;-66
2020/12/05 05:34:37;;;;;;;34.00;16.77;;;;;;;2.42;71.64;101757.87;1845764;75;21298;-65
2020/12/05 05:37:17;;;;;;;30.30;15.18;;;;;;;2.39;71.83;101766.61;1845140;75;21179;-65
2020/12/05 05:39:52;;;;;;;30.68;15.03;;;;;;;2.38;72.00;101757.55;1777450;78;21195;-66
2020/12/05 05:42:38;;;;;;;23.22;12.58;;;;;;;2.32;71.87;101767.65;1782260;78;21209;-67
2020/12/05 05:45:19;;;;;;;26.77;14.73;;;;;;;2.32;71.81;101757.68;1782388;79;21491;-65
2020/12/05 05:47:49;;;;;;;27.70;14.93;;;;;;;2.39;71.55;101753.62;1781453;79;21568;-65
2020/12/05 05:50:33;;;;;;;23.80;14.30;;;;;;;2.41;71.78;101750.53;1781625;78;21152;-64
2020/12/05 05:53:13;;;;;;;25.55;14.80;;;;;;;2.47;71.83;101758.64;1779744;78;21199;-65
2020/12/05 05:55:46;;;;;;;25.48;14.43;;;;;;;2.45;72.02;101755.66;1777698;78;21196;-65
2020/12/05 05:58:21;;;;;;;27.02;16.15;;;;;;;2.42;72.06;101757.87;1779790;78;21211;-65
2020/12/05 06:00:50;;;;;;;35.75;16.62;;;;;;;2.40;72.04;101763.55;1771174;79;22790;-65
2020/12/05 06:03:23;;;;;;;34.73;17.12;;;;;;;2.40;72.04;101763.13;1764986;80;21658;-66
2020/12/05 06:05:56;;;;;;;31.60;16.35;;;;;;;2.39;72.06;101764.01;1761692;80;21181;-66
2020/12/05 06:08:28;;;;;;;29.70;16.85;;;;;;;2.39;71.98;101764.01;1765086;80;21607;-66
2020/12/05 06:11:09;;;;;;;27.62;16.00;;;;;;;2.47;71.86;101769.03;1766741;79;21139;-66
2020/12/05 06:13:44;;;;;;;29.45;14.85;;;;;;;2.63;71.65;101766.90;1867290;74;22724;-66
2020/12/05 06:16:14;;;;;;;28.47;15.75;;;;;;;2.65;71.56;101767.71;1839709;75;21103;-65
2020/12/05 06:18:41;;;;;;;28.73;15.83;;;;;;;2.67;71.48;101764.62;1833829;75;21329;-65
2020/12/05 06:21:10;;;;;;;24.45;15.95;;;;;;;2.65;71.40;101766.41;1830906;77;21187;-67
2020/12/05 06:23:43;;;;;;;31.12;17.82;;;;;;;2.57;71.48;101766.62;1830233;77;21685;-65
2020/12/05 06:26:27;;;;;;;29.98;16.60;;;;;;;2.47;71.66;101761.23;1829317;77;21710;-67
2020/12/05 06:28:58;;;;;;;33.83;16.93;;;;;;;2.38;71.89;101768.78;1830941;77;21203;-65
2020/12/05 06:31:46;;;;;;;34.67;17.98;;;;;;;2.36;72.08;101771.87;1806002;77;22199;-65
2020/12/05 06:34:42;;;;;;;36.88;16.48;;;;;;;2.45;71.96;101780.34;1830411;77;21175;-65
2020/12/05 06:37:16;;;;;;;34.53;18.50;;;;;;;2.49;71.93;101785.86;1828810;75;21995;-65
2020/12/05 06:39:52;;;;;;;27.73;14.85;;;;;;;2.46;71.95;101788.09;1824518;77;21135;-65
2020/12/05 06:42:19;;;;;;;37.10;20.43;;;;;;;2.41;72.27;101790.80;1827175;77;21183;-65
2020/12/05 06:44:48;;;;;;;36.03;19.25;;;;;;;2.40;72.37;101789.11;1830026;77;22582;-66
2020/12/05 06:47:27;;;;;;;34.35;15.50;;;;;;;2.39;72.42;101791.28;1829268;75;21652;-66
2020/12/05 06:49:59;;;;;;;35.38;17.98;;;;;;;2.38;72.52;101797.81;1828643;77;21592;-66
2020/12/05 06:52:32;;;;;;;28.83;17.37;;;;;;;2.41;72.45;101800.34;1829242;77;21175;-67
2020/12/05 06:55:13;;;;;;;27.40;16.77;;;;;;;2.52;72.23;101789.69;1832009;75;21215;-66
2020/12/05 06:57:43;;;;;;;26.02;15.30;;;;;;;2.58;72.07;101784.35;1829724;77;21606;-66
2020/12/05 07:00:16;;;;;;;35.55;15.55;;;;;;;2.59;72.05;101792.56;1832971;75;21590;-65
2020/12/05 07:03:05;;;;;;;29.45;16.20;;;;;;;2.52;72.16;101796.18;1829875;77;21143;-67
2020/12/05 07:05:42;;;;;;;31.80;17.35;;;;;;;2.44;72.43;101805.47;1830236;77;21209;-69
2020/12/05 07:08:35;;;;;;;33.28;16.42;;;;;;;2.38;72.64;101805.15;1830903;77;22147;-66
2020/12/05 07:11:14;;;;;;;33.38;19.50;;;;;;;2.36;72.80;101804.34;1830595;75;21271;-66
2020/12/05 07:13:48;;;;;;;31.37;15.48;;;;;;;2.34;72.86;101810.48;1826961;77;21619;-65
2020/12/05 07:16:25;;;;;;;33.42;16.23;;;;;;;2.38;72.75;101814.70;1830088;77;21123;-65
2020/12/05 07:19:01;;;;;;;29.25;15.70;;;;;;;2.54;72.56;101828.17;1829018;75;21685;-65
2020/12/05 07:21:30;;;;;;;26.77;13.85;;;;;;;2.66;72.31;101827.06;1829521;76;21108;-66
2020/12/05 07:23:59;;;;;;;30.17;15.20;;;;;;;2.69;72.12;101829.14;1830588;76;22334;-67
2020/12/05 07:26:26;;;;;;;28.75;15.48;;;;;;;2.66;71.98;101833.56;1828232;77;21373;-66
2020/12/05 07:28:56;;;;;;;36.50;16.37;;;;;;;2.59;72.12;101832.39;1830816;76;21194;-66
2020/12/05 07:31:24;;;;;;;32.63;16.30;;;;;;;2.54;72.17;101836.84;1831915;76;21698;-66
2020/12/05 07:33:52;;;;;;;31.75;17.27;;;;;;;2.47;72.31;101846.10;1829306;76;21144;-66
2020/12/05 07:36:19;;;;;;;36.03;17.10;;;;;;;2.40;72.47;101846.27;1830220;77;21334;-66
2020/12/05 07:38:49;;;;;;;29.02;15.25;;;;;;;2.44;72.44;101843.15;1829950;76;21512;-66
2020/12/05 07:41:18;;;;;;;32.30;17.05;;;;;;;2.53;72.25;101845.52;1828819;75;21175;-66
2020/12/05 07:43:48;;;;;;;29.92;14.95;;;;;;;2.58;72.23;101845.42;1829696;77;21421;-66
2020/12/05 07:46:16;;;;;;;25.17;15.35;;;;;;;2.60;72.16;101840.58;1832579;77;21185;-66
2020/12/05 07:48:43;;;;;;;30.40;15.78;;;;;;;2.57;72.15;101851.50;1829871;76;21534;-66
2020/12/05 07:51:13;;;;;;;30.75;16.17;;;;;;;2.52;72.26;101845.55;1829497;77;21764;-65
2020/12/05 07:53:41;;;;;;;36.00;17.98;;;;;;;2.50;72.32;101852.08;1831880;75;21175;-66
2020/12/05 07:56:22;;;;;;;29.05;16.02;;;;;;;2.48;72.38;101855.16;1831791;76;21481;-66
2020/12/05 07:59:14;;;;;;;40.20;18.92;;;;;;;2.48;72.37;101849.97;1799283;79;22792;-64
2020/12/05 08:02:02;;;;;;;34.58;16.23;;;;;;;2.53;72.21;101844.22;1700283;81;21658;-64
2020/12/05 08:15:19;;;;;;;34.03;17.82;;;;;;;2.36;72.86;101862.79;1845168;74;23184;-64
2020/12/05 08:17:47;;;;;;;37.23;18.00;;;;;;;2.29;73.12;101875.51;1831724;77;21217;-65
2020/12/05 08:20:23;;;;;;;33.28;17.48;;;;;;;2.31;73.17;101876.33;1856128;75;23400;-65
2020/12/05 08:25:29;;;;;;;34.33;15.10;;;;;;;2.51;72.81;101877.19;1796642;77;22658;-65
2020/12/05 08:27:56;;;;;;;32.20;16.60;;;;;;;2.55;72.77;101877.52;1767746;80;21187;-66
2020/12/05 08:30:24;;;;;;;30.92;14.85;;;;;;;2.63;72.61;101880.41;1769093;80;23204;-64
2020/12/05 08:33:01;;;;;;;29.65;17.00;;;;;;;2.63;72.54;101881.25;1768773;80;21475;-64
2020/12/05 08:35:31;;;;;;;31.43;17.23;;;;;;;2.59;72.59;101884.83;1766637;78;21192;-64
2020/12/05 08:38:02;;;;;;;29.23;15.68;;;;;;;2.51;72.74;101881.54;1770964;80;21203;-65
2020/12/05 08:40:29;;;;;;;30.82;15.60;;;;;;;2.44;72.88;101880.82;1765603;80;21196;-66
2020/12/05 08:42:57;;;;;;;32.45;15.72;;;;;;;2.46;72.95;101886.83;1768911;80;21660;-64
2020/12/05 08:45:25;;;;;;;28.42;16.85;;;;;;;2.60;72.71;101886.52;1765135;80;21195;-64
2020/12/05 08:47:53;;;;;;;28.70;16.87;;;;;;;2.71;72.57;101884.53;1767751;79;21228;-63
2020/12/05 08:50:29;;;;;;;33.95;18.35;;;;;;;2.79;72.48;101886.52;1768609;80;21528;-65
2020/12/05 08:52:58;;;;;;;29.65;15.23;;;;;;;2.80;72.44;101883.45;1766488;80;26735;-64
2020/12/05 08:55:36;;;;;;;27.95;15.65;;;;;;;2.77;72.47;101892.20;1765572;78;22200;-63
2020/12/05 08:58:05;;;;;;;36.23;17.57;;;;;;;2.73;72.63;101884.50;1767065;80;21814;-66
2020/12/05 09:00:34;;;;;;;30.50;15.40;;;;;;;2.67;72.73;101877.67;1767337;80;21210;-64
2020/12/05 09:03:03;;;;;;;35.48;15.23;;;;;;;2.63;72.85;101883.01;1764928;80;21230;-68
2020/12/05 09:05:33;;;;;;;24.57;14.00;;;;;;;2.68;72.79;101883.75;1769276;80;21612;-65
2020/12/05 09:08:01;;;;;;;27.45;15.15;;;;;;;2.78;72.55;101880.89;1722681;80;21460;-67
2020/12/05 09:10:29;;;;;;;29.18;15.23;;;;;;;2.88;72.44;101880.69;1766707;80;21757;-63
2020/12/05 09:13:06;;;;;;;28.47;14.00;;;;;;;2.95;72.38;101882.24;1767441;80;21280;-65
2020/12/05 09:15:35;;;;;;;28.70;15.93;;;;;;;3.00;72.33;101879.53;1770122;80;21278;-63
2020/12/05 09:18:03;;;;;;;28.12;14.70;;;;;;;2.98;72.34;101884.77;1767388;80;21219;-64
2020/12/05 09:20:30;;;;;;;34.33;15.20;;;;;;;2.95;72.29;101878.34;1767416;78;21828;-65
2020/12/05 09:22:59;;;;;;;27.77;14.65;;;;;;;2.90;72.26;101873.70;1767881;78;21220;-66
2020/12/05 09:25:37;;;;;;;28.15;15.18;;;;;;;2.87;72.28;101872.47;1726309;81;21227;-64
2020/12/05 09:28:16;;;;;;;33.75;14.98;;;;;;;2.83;72.34;101872.14;1761725;80;21199;-65
2020/12/05 09:30:43;;;;;;;32.45;16.75;;;;;;;2.86;72.30;101869.45;1763555;80;21250;-67
2020/12/05 09:33:15;;;;;;;30.57;16.48;;;;;;;2.99;72.06;101872.16;1763488;80;21204;-65
2020/12/05 09:35:43;;;;;;;27.77;14.55;;;;;;;3.09;71.86;101873.67;1760564;80;21226;-64
2020/12/05 09:38:11;;;;;;;31.65;16.15;;;;;;;3.12;71.73;101873.56;1759147;80;21618;-64
2020/12/05 09:40:39;;;;;;;30.25;17.73;;;;;;;3.11;71.79;101871.00;1761971;80;22107;-65
2020/12/05 09:43:08;;;;;;;31.37;17.32;;;;;;;3.10;71.82;101871.45;1763205;80;21105;-64
2020/12/05 09:45:39;;;;;;;23.65;14.28;;;;;;;3.08;71.73;101869.34;1765334;80;21374;-65
2020/12/05 09:48:07;;;;;;;29.52;17.17;;;;;;;3.03;71.69;101864.70;1763369;80;21160;-63
2020/12/05 09:50:35;;;;;;;25.32;15.93;;;;;;;2.98;71.79;101873.07;1762211;80;21160;-63
2020/12/05 09:53:03;;;;;;;30.48;17.20;;;;;;;2.93;71.77;101869.27;1761797;80;21117;-61
2020/12/05 09:55:31;;;;;;;29.98;16.57;;;;;;;2.95;71.71;101867.94;1762286;80;21113;-61
2020/12/05 09:57:58;;;;;;;34.23;19.42;;;;;;;3.01;71.55;101866.50;1764237;79;21352;-62
2020/12/05 10:00:26;;;;;;;28.42;16.30;;;;;;;3.10;71.44;101857.61;1763996;80;22225;-63
2020/12/05 10:02:54;;;;;;;33.85;16.73;;;;;;;3.15;71.14;101865.69;1760754;79;21203;-64
2020/12/05 10:05:23;;;;;;;33.98;16.95;;;;;;;3.13;71.07;101864.04;1762645;80;21116;-63
2020/12/05 10:07:51;;;;;;;34.00;17.95;;;;;;;3.06;71.12;101863.34;1762439;80;21183;-65
2020/12/05 10:10:20;;;;;;;31.17;18.77;;;;;;;3.00;71.28;101863.94;1761581;80;21368;-64
2020/12/05 10:12:49;;;;;;;33.58;18.20;;;;;;;2.98;71.38;101871.77;1735409;80;21196;-63
2020/12/05 10:15:17;;;;;;;29.18;17.55;;;;;;;2.95;71.42;101871.84;1761083;80;21208;-64
2020/12/05 10:17:45;;;;;;;35.08;18.20;;;;;;;2.91;71.45;101865.86;1758728;79;21216;-63
2020/12/05 10:20:13;;;;;;;31.35;18.25;;;;;;;2.96;71.37;101874.86;1758113;80;21582;-64
2020/12/05 10:22:41;;;;;;;32.78;18.10;;;;;;;3.06;71.09;101874.16;1763754;79;22607;-64
2020/12/05 10:25:11;;;;;;;31.40;18.37;;;;;;;3.14;70.99;101873.11;1759817;79;21211;-65
2020/12/05 10:27:39;;;;;;;33.45;17.98;;;;;;;3.19;70.74;101872.12;1760358;79;21756;-64
2020/12/05 10:30:09;;;;;;;36.77;18.98;;;;;;;3.18;70.69;101873.87;1757534;79;21167;-64
2020/12/05 10:32:52;;;;;;;37.20;20.30;;;;;;;3.18;70.74;101874.30;1763973;80;21229;-64
2020/12/05 10:35:20;;;;;;;31.93;18.57;;;;;;;3.14;70.64;101872.23;1763935;80;22479;-64
2020/12/05 10:37:48;;;;;;;32.50;17.98;;;;;;;3.10;70.63;101872.76;1764103;80;21657;-62
2020/12/05 10:40:16;;;;;;;31.52;18.90;;;;;;;3.09;70.68;101872.79;1764450;80;21189;-64
2020/12/05 10:42:44;;;;;;;31.95;17.87;;;;;;;3.04;70.62;101869.00;1767571;80;21095;-65
2020/12/05 10:45:12;;;;;;;25.90;16.73;;;;;;;3.08;70.55;101869.80;1767204;80;21174;-63
2020/12/05 10:47:41;;;;;;;37.23;20.50;;;;;;;3.18;70.21;101870.40;1768590;80;21207;-63
2020/12/05 10:50:09;;;;;;;26.85;16.48;;;;;;;3.23;70.01;101871.14;1767217;80;21165;-64
2020/12/05 10:52:37;;;;;;;33.40;17.10;;;;;;;3.22;70.01;101878.09;1766671;80;22255;-63
2020/12/05 10:55:06;;;;;;;35.83;19.42;;;;;;;3.22;70.08;101880.70;1763877;80;21155;-63
2020/12/05 10:57:33;;;;;;;28.50;17.57;;;;;;;3.21;70.01;101884.64;1766690;80;21619;-63
2020/12/05 11:00:01;;;;;;;28.70;18.02;;;;;;;3.15;70.06;101882.59;1765450;80;22375;-62
2020/12/05 11:02:29;;;;;;;31.55;17.00;;;;;;;3.12;70.19;101883.97;1767595;80;21198;-61
2020/12/05 11:04:56;;;;;;;33.98;19.30;;;;;;;3.10;70.11;101885.77;1766315;80;21507;-62
2020/12/05 11:07:24;;;;;;;35.05;18.45;;;;;;;3.04;70.21;101885.91;1766182;80;21198;-63
2020/12/05 11:09:51;;;;;;;30.95;16.90;;;;;;;3.02;70.27;101887.69;1765297;80;21550;-61
2020/12/05 11:12:19;;;;;;;27.17;16.93;;;;;;;3.05;70.29;101888.92;1765190;80;21547;-61
2020/12/05 11:14:47;;;;;;;28.38;16.52;;;;;;;3.15;69.96;101883.90;1765683;80;22006;-62
2020/12/05 11:17:15;;;;;;;26.65;15.95;;;;;;;3.20;69.73;101884.25;1764939;80;21525;-63
2020/12/05 11:19:43;;;;;;;22.13;14.87;;;;;;;3.21;69.74;101876.83;1767532;80;21165;-63
2020/12/05 11:22:11;;;;;;;30.25;16.77;;;;;;;3.21;69.71;101882.03;1766132;80;21233;-63
2020/12/05 11:24:39;;;;;;;29.65;16.87;;;;;;;3.21;69.75;101892.02;1765027;80;21446;-61
2020/12/05 11:27:07;;;;;;;31.50;17.37;;;;;;;3.22;69.80;101886.36;1767118;80;21765;-62
2020/12/05 11:29:34;;;;;;;27.37;15.45;;;;;;;3.20;69.70;101895.95;1765049;80;21175;-63
2020/12/05 11:32:02;;;;;;;30.05;17.12;;;;;;;3.13;69.67;101893.95;1761684;80;21483;-63
2020/12/05 11:34:30;;;;;;;27.80;15.40;;;;;;;3.07;69.74;101900.14;1756393;80;21151;-62
2020/12/05 11:36:59;;;;;;;24.32;15.10;;;;;;;3.01;69.80;101897.70;1758723;80;21403;-63
2020/12/05 11:39:27;;;;;;;28.32;15.58;;;;;;;3.03;69.78;101899.81;1757180;80;21194;-62
2020/12/05 11:41:55;;;;;;;24.05;14.95;;;;;;;3.09;69.67;101902.70;1757095;80;21614;-63
2020/12/05 11:44:24;;;;;;;22.50;14.13;;;;;;;3.12;69.36;101905.23;1758581;80;21253;-64
2020/12/05 11:46:52;;;;;;;21.95;13.70;;;;;;;3.12;69.19;101905.23;1755961;80;21242;-65
2020/12/05 11:49:20;;;;;;;19.50;13.08;;;;;;;3.06;69.38;101906.25;1757261;80;21364;-65
2020/12/05 11:51:49;;;;;;;31.95;16.30;;;;;;;3.07;69.40;101910.54;1759975;80;21175;-64